Time;durP1;ratioP1;P1;durP2;ratioP2;P2;SDS_P1;SDS_P2;PMS_P1;PMS_P2;Temp;Humidity;BMP_temperature;BMP_pressure;BME280_temperature;BME280_humidity;BME280_pressure;Samples;Min_cycle;Max_cycle;Signal;HPM_P1;HPM_P2
2023/05/25 00:02:16;;;;;;;1.10;1.00;;;;;;;11.94;73.34;96563.63;5079149;28;20208;-69
2023/05/25 00:04:47;;;;;;;1.70;0.97;;;;;;;12.03;74.27;96566.03;5079274;28;20562;-71
2023/05/25 00:07:13;;;;;;;1.33;0.63;;;;;;;12.03;73.96;96554.63;5078855;28;20207;-69
2023/05/25 00:09:43;;;;;;;0.80;0.73;;;;;;;11.96;74.04;96554.53;5079110;28;20892;-70
2023/05/25 00:12:10;;;;;;;1.93;0.60;;;;;;;11.98;73.13;96551.72;5079994;28;20215;-72
2023/05/25 00:14:37;;;;;;;1.40;1.23;;;;;;;11.93;73.06;96554.06;5082130;28;20219;-70
2023/05/25 00:17:03;;;;;;;0.60;0.60;;;;;;;11.84;73.14;96549.84;5082441;28;20240;-70
2023/05/25 00:19:31;;;;;;;2.50;1.77;;;;;;;11.87;72.61;96547.66;5082307;28;20206;-72
2023/05/25 00:22:00;;;;;;;2.93;1.10;;;;;;;11.72;71.50;96546.81;5082063;28;20257;-68
2023/05/25 00:24:28;;;;;;;1.03;0.87;;;;;;;11.89;71.74;96544.84;5082865;28;20208;-69
2023/05/25 00:26:56;;;;;;;6.67;1.57;;;;;;;11.80;71.77;96552.03;5083323;28;20447;-72
2023/05/25 00:29:23;;;;;;;1.40;0.87;;;;;;;11.82;71.99;96544.72;5081977;28;20215;-71
2023/05/25 00:31:49;;;;;;;0.50;0.50;;;;;;;11.78;72.28;96547.91;5083059;28;20195;-72
2023/05/25 00:34:16;;;;;;;1.27;0.87;;;;;;;11.83;71.76;96545.56;5081992;28;20234;-70
2023/05/25 00:36:47;;;;;;;0.77;0.60;;;;;;;11.74;72.92;96544.78;5083123;28;20200;-68
2023/05/25 00:39:13;;;;;;;1.53;1.07;;;;;;;11.64;71.77;96538.94;5082626;28;20242;-71
2023/05/25 00:41:43;;;;;;;1.43;0.83;;;;;;;11.76;73.19;96553.38;5083102;28;20200;-70
2023/05/25 00:44:13;;;;;;;1.10;0.75;;;;;;;11.83;72.88;96548.22;5083387;28;20246;-71
2023/05/25 00:46:46;;;;;;;1.30;1.03;;;;;;;11.88;74.52;96545.88;5083010;28;20291;-69
2023/05/25 00:49:14;;;;;;;0.87;0.80;;;;;;;11.83;74.22;96545.56;5081911;28;20783;-72
2023/05/25 00:51:45;;;;;;;5.23;0.90;;;;;;;11.72;73.43;96546.81;5082515;28;20196;-71
2023/05/25 00:54:13;;;;;;;0.60;0.60;;;;;;;11.74;72.78;96539.50;5081565;28;20242;-70
2023/05/25 00:56:41;;;;;;;1.87;1.37;;;;;;;11.68;74.01;96542.88;5082343;28;20261;-69
2023/05/25 00:59:14;;;;;;;1.73;0.87;;;;;;;11.86;73.94;96537.28;5081814;28;20228;-72
2023/05/25 01:01:43;;;;;;;6.63;1.40;;;;;;;11.80;74.44;96545.91;5082807;28;20212;-69
2023/05/25 01:04:13;;;;;;;2.13;1.10;;;;;;;11.90;74.61;96535.94;5082140;28;20993;-71
2023/05/25 01:06:43;;;;;;;0.97;0.87;;;;;;;11.77;74.31;96551.53;5082111;28;20211;-70
2023/05/25 01:09:12;;;;;;;0.83;0.57;;;;;;;11.84;75.42;96545.38;5081115;28;20220;-71
2023/05/25 01:11:42;;;;;;;1.47;0.80;;;;;;;11.90;74.37;96549.13;5082941;28;20192;-72
2023/05/25 01:14:10;;;;;;;0.70;0.57;;;;;;;11.65;74.17;96545.03;5082393;28;20223;-71
2023/05/25 01:16:37;;;;;;;1.40;0.80;;;;;;;11.72;75.05;96544.16;5082469;28;20214;-68
2023/05/25 01:19:04;;;;;;;1.40;0.87;;;;;;;11.63;75.19;96547.03;5081688;28;20223;-70
2023/05/25 01:21:40;;;;;;;4.53;1.47;;;;;;;11.76;74.04;96544.63;5083081;28;20208;-72
2023/05/25 01:24:12;;;;;;;1.17;1.07;;;;;;;11.75;75.34;96546.44;5081521;28;20202;-71
2023/05/25 01:26:46;;;;;;;5.27;1.47;;;;;;;11.70;74.28;96547.97;5082370;28;20196;-69
2023/05/25 01:29:14;;;;;;;0.57;0.57;;;;;;;11.70;77.07;96548.78;5081154;28;20223;-68
2023/05/25 01:31:41;;;;;;;1.27;1.17;;;;;;;11.65;75.73;96545.03;5081874;28;20699;-70
2023/05/25 01:34:08;;;;;;;2.00;1.00;;;;;;;11.64;77.72;96546.84;5081272;28;20224;-71
2023/05/25 01:36:36;;;;;;;1.83;0.93;;;;;;;11.58;77.52;96546.72;5081376;28;20410;-72
2023/05/25 01:39:05;;;;;;;2.13;0.77;;;;;;;11.71;79.05;96546.97;5081362;28;20330;-72
2023/05/25 01:41:31;;;;;;;2.73;1.37;;;;;;;11.53;76.18;96549.06;5081057;28;20212;-68
2023/05/25 01:43:58;;;;;;;1.77;1.30;;;;;;;11.51;76.60;96551.06;5080855;28;20196;-72
2023/05/25 01:46:35;;;;;;;1.47;0.90;;;;;;;11.59;76.31;96558.94;5080867;28;20196;-68
2023/05/25 01:49:11;;;;;;;0.77;0.77;;;;;;;11.65;75.86;96553.78;5080411;28;20268;-69
2023/05/25 01:51:51;;;;;;;11.07;1.90;;;;;;;11.68;76.43;96557.88;5081588;28;20214;-69
2023/05/25 01:54:19;;;;;;;0.87;0.73;;;;;;;11.67;77.60;96561.50;5080709;28;20319;-70
2023/05/25 01:56:48;;;;;;;1.30;1.13;;;;;;;11.69;77.93;96548.97;5081999;28;20200;-70
2023/05/25 01:59:19;;;;;;;0.67;0.60;;;;;;;11.69;78.58;96559.53;5080260;28;20226;-70
2023/05/25 02:01:47;;;;;;;1.07;0.90;;;;;;;11.71;78.46;96555.72;5080825;28;20211;-69
2023/05/25 02:04:15;;;;;;;1.67;1.57;;;;;;;11.52;79.58;96558.00;5081346;28;20199;-69
2023/05/25 02:06:43;;;;;;;4.43;1.50;;;;;;;11.69;80.02;96555.06;5077374;28;20196;-72
2023/05/25 02:09:09;;;;;;;0.70;0.70;;;;;;;11.59;80.58;96558.94;5080702;28;20224;-73
2023/05/25 02:11:36;;;;;;;0.83;0.70;;;;;;;11.52;81.10;96563.28;5081221;28;20245;-71
2023/05/25 02:14:02;;;;;;;1.20;1.10;;;;;;;11.36;81.13;96552.78;5080340;28;20216;-69
2023/05/25 02:16:29;;;;;;;4.30;0.87;;;;;;;11.30;80.87;96550.88;5080993;28;20204;-69
2023/05/25 02:18:56;;;;;;;4.63;1.77;;;;;;;11.19;81.27;96551.25;5079988;28;20262;-69
2023/05/25 02:21:23;;;;;;;7.10;1.00;;;;;;;11.31;82.69;96544.56;5080609;28;20753;-71
2023/05/25 02:23:52;;;;;;;0.83;0.83;;;;;;;11.24;82.12;96548.91;5080521;28;20211;-71
2023/05/25 02:26:19;;;;;;;0.70;0.70;;;;;;;11.41;82.43;96544.34;5080908;28;20195;-69
2023/05/25 02:28:46;;;;;;;2.30;1.27;;;;;;;11.42;82.04;96548.63;5079462;28;20242;-70
2023/05/25 02:31:12;;;;;;;0.83;0.40;;;;;;;11.44;83.47;96547.44;5080480;28;20210;-72
2023/05/25 02:33:39;;;;;;;3.17;0.97;;;;;;;11.45;83.70;96546.47;5080710;28;20511;-72
2023/05/25 02:36:06;;;;;;;1.87;1.10;;;;;;;11.11;83.51;96553.94;5079407;28;20220;-68
2023/05/25 02:38:32;;;;;;;6.87;1.60;;;;;;;11.24;82.96;96538.34;5079618;28;20561;-71
2023/05/25 02:41:00;;;;;;;4.77;1.30;;;;;;;11.33;83.97;96532.03;5079847;28;20226;-72
2023/05/25 02:43:26;;;;;;;1.93;1.27;;;;;;;11.26;83.83;96530.25;5079829;28;20204;-72
2023/05/25 02:45:53;;;;;;;1.00;0.90;;;;;;;11.19;83.66;96531.97;5080417;28;20932;-72
2023/05/25 02:48:20;;;;;;;3.20;1.27;;;;;;;11.21;84.54;96535.22;5079057;28;20407;-70
2023/05/25 02:50:47;;;;;;;0.80;0.80;;;;;;;11.13;84.32;96541.38;5079648;28;20218;-68
2023/05/25 02:53:13;;;;;;;1.60;1.07;;;;;;;10.95;84.74;96545.25;5079610;28;20203;-69
2023/05/25 02:55:42;;;;;;;1.60;1.40;;;;;;;10.95;85.61;96538.16;5080040;28;20611;-72
2023/05/25 02:58:09;;;;;;;0.90;0.90;;;;;;;10.88;85.82;96541.66;5079055;28;20227;-73
2023/05/25 03:00:36;;;;;;;0.80;0.73;;;;;;;10.69;86.12;96541.25;5080189;28;20211;-71
2023/05/25 03:03:03;;;;;;;7.53;2.03;;;;;;;10.66;87.14;96552.94;5080306;28;20677;-71
2023/05/25 03:05:29;;;;;;;1.97;1.13;;;;;;;10.68;85.77;96550.13;5080093;28;20196;-68
2023/05/25 03:07:56;;;;;;;1.00;0.90;;;;;;;10.69;86.59;96554.41;5079006;28;20715;-69
2023/05/25 03:10:22;;;;;;;1.93;1.30;;;;;;;10.71;86.41;96560.34;5080114;28;20614;-70
2023/05/25 03:12:49;;;;;;;1.77;1.30;;;;;;;10.76;86.24;96560.69;5080380;28;20206;-69
2023/05/25 03:15:17;;;;;;;2.40;0.97;;;;;;;10.96;86.82;96560.91;5079150;28;20889;-72
2023/05/25 03:17:43;;;;;;;1.00;0.90;;;;;;;10.90;87.23;96557.31;5079312;28;20838;-72
2023/05/25 03:20:11;;;;;;;2.43;1.27;;;;;;;10.98;87.48;96551.03;5079097;28;20210;-72
2023/05/25 03:22:38;;;;;;;4.97;1.47;;;;;;;10.85;88.28;96557.81;5079269;28;20674;-69
2023/05/25 03:25:05;;;;;;;0.93;0.70;;;;;;;10.80;89.91;96564.59;5078502;28;20203;-72
2023/05/25 03:27:32;;;;;;;1.17;1.07;;;;;;;10.76;89.82;96563.31;5078098;28;20223;-70
2023/05/25 03:29:58;;;;;;;1.47;1.30;;;;;;;10.86;90.33;96569.19;5079148;28;20204;-68
2023/05/25 03:32:26;;;;;;;1.40;1.10;;;;;;;10.99;89.44;96573.75;5079058;28;20690;-70
2023/05/25 03:34:53;;;;;;;2.10;0.50;;;;;;;10.92;89.11;96571.16;5078319;28;20235;-68
2023/05/25 03:37:19;;;;;;;1.03;0.83;;;;;;;10.95;89.78;96569.00;5078717;28;20227;-71
2023/05/25 03:39:46;;;;;;;2.60;0.90;;;;;;;10.83;90.82;96577.44;5078980;28;20204;-71
2023/05/25 03:42:12;;;;;;;0.90;0.90;;;;;;;10.78;89.61;96571.84;5079811;28;20208;-71
2023/05/25 03:44:39;;;;;;;2.73;1.77;;;;;;;10.83;91.07;96569.53;5078762;28;21000;-70
2023/05/25 03:47:05;;;;;;;5.40;1.33;;;;;;;10.80;92.13;96575.16;5078517;28;20208;-71
2023/05/25 03:49:33;;;;;;;2.77;1.77;;;;;;;10.91;91.85;96572.97;5076990;28;20204;-72
2023/05/25 03:52:00;;;;;;;4.77;1.47;;;;;;;10.76;91.94;96569.38;5079070;28;20210;-69
2023/05/25 03:54:26;;;;;;;1.67;1.00;;;;;;;10.66;91.72;96566.13;5077784;28;20200;-70
2023/05/25 03:56:53;;;;;;;1.73;1.20;;;;;;;10.56;91.71;96569.94;5078175;28;20200;-72
2023/05/25 03:59:19;;;;;;;3.13;1.23;;;;;;;10.54;91.55;96571.94;5077982;28;20223;-70
2023/05/25 04:01:46;;;;;;;0.90;0.90;;;;;;;10.54;91.60;96580.66;5079079;28;20238;-68
2023/05/25 04:04:12;;;;;;;5.97;1.53;;;;;;;10.57;92.23;96579.50;5078459;28;20583;-71
2023/05/25 04:06:41;;;;;;;2.00;0.93;;;;;;;10.79;92.26;96578.78;5078972;28;20200;-71
2023/05/25 04:09:08;;;;;;;2.33;1.40;;;;;;;10.90;92.41;96586.31;5078300;28;20271;-70
2023/05/25 04:11:34;;;;;;;3.50;1.60;;;;;;;10.83;92.29;96588.78;5078432;28;20200;-72
2023/05/25 04:14:01;;;;;;;1.20;0.90;;;;;;;10.89;92.15;96593.41;5078943;28;20691;-72
2023/05/25 04:16:27;;;;;;;1.17;1.03;;;;;;;11.00;92.48;96590.41;5078518;28;20215;-68
2023/05/25 04:18:54;;;;;;;1.90;1.30;;;;;;;11.07;92.62;96586.91;5078088;28;20227;-73
2023/05/25 04:21:21;;;;;;;1.33;1.03;;;;;;;11.22;92.90;96587.81;5077588;28;20208;-73
2023/05/25 04:23:48;;;;;;;3.97;1.20;;;;;;;11.04;92.81;96589.88;5078954;28;20548;-71
2023/05/25 04:26:15;;;;;;;1.83;1.33;;;;;;;10.89;93.29;96590.75;5078253;28;20200;-71
2023/05/25 04:28:42;;;;;;;6.17;1.67;;;;;;;10.96;93.57;96595.19;5077358;28;20437;-68
2023/05/25 04:31:08;;;;;;;1.47;1.37;;;;;;;11.14;94.00;96597.59;5078638;28;20204;-71
2023/05/25 04:33:37;;;;;;;1.13;0.97;;;;;;;11.16;94.47;96599.06;5078804;28;20739;-70
2023/05/25 04:36:04;;;;;;;1.60;1.50;;;;;;;11.31;93.80;96597.31;5078570;28;20231;-73
2023/05/25 04:38:31;;;;;;;2.47;1.40;;;;;;;11.32;93.89;96591.06;5079325;28;20227;-69
2023/05/25 04:41:00;;;;;;;3.80;1.63;;;;;;;11.36;93.28;96584.44;5079847;28;20443;-69
2023/05/25 04:43:28;;;;;;;19.33;1.27;;;;;;;11.15;93.10;96591.31;5080229;28;20210;-70
2023/05/25 04:45:55;;;;;;;2.20;1.20;;;;;;;11.32;93.22;96591.06;5079896;28;20204;-71
2023/05/25 04:48:23;;;;;;;2.33;0.93;;;;;;;11.43;92.96;96590.69;5078490;28;20220;-68
2023/05/25 04:50:50;;;;;;;2.23;1.13;;;;;;;11.62;92.19;96592.88;5080007;28;20263;-71
2023/05/25 04:53:17;;;;;;;6.00;1.30;;;;;;;11.83;91.89;96585.19;5079932;28;20494;-71
2023/05/25 04:55:43;;;;;;;1.50;1.05;;;;;;;11.80;91.99;96585.50;5079680;28;20223;-74
2023/05/25 04:58:12;;;;;;;1.57;1.20;;;;;;;11.84;91.11;96584.19;5079816;28;20730;-72
2023/05/25 05:00:39;;;;;;;1.27;1.00;;;;;;;11.83;91.93;96583.34;5082238;28;20287;-70
2023/05/25 05:03:05;;;;;;;2.67;1.20;;;;;;;11.84;93.61;96586.81;5084083;28;20227;-69
2023/05/25 05:05:31;;;;;;;2.50;1.43;;;;;;;11.85;93.56;96585.81;5083275;28;20196;-73
2023/05/25 05:07:58;;;;;;;6.72;1.08;;;;;;;11.84;94.14;96578.91;5082260;28;20215;-69
2023/05/25 05:10:25;;;;;;;2.63;1.40;;;;;;;11.88;91.85;96578.34;5082548;28;20253;-70
2023/05/25 05:12:51;;;;;;;1.70;1.27;;;;;;;11.90;93.13;96572.91;5083459;28;20196;-70
2023/05/25 05:15:19;;;;;;;1.63;1.20;;;;;;;12.00;91.88;96576.13;5082368;28;20219;-72
2023/05/25 05:17:46;;;;;;;13.43;1.33;;;;;;;11.89;93.58;96571.25;5078290;28;20224;-72
2023/05/25 05:20:13;;;;;;;1.00;0.90;;;;;;;11.93;93.84;96577.84;5079138;28;20204;-71
2023/05/25 05:22:39;;;;;;;3.37;1.80;;;;;;;11.98;92.86;96573.66;5079096;28;20207;-71
2023/05/25 05:25:07;;;;;;;2.28;1.65;;;;;;;12.09;94.20;96581.16;5078867;28;20204;-71
2023/05/25 05:27:34;;;;;;;3.77;2.00;;;;;;;12.19;93.19;96590.50;5079135;28;20285;-70
2023/05/25 05:30:01;;;;;;;3.70;2.57;;;;;;;11.86;92.85;96593.56;5082477;28;20745;-69
2023/05/25 05:32:29;;;;;;;1.47;1.23;;;;;;;12.11;92.85;96586.28;5081589;28;20204;-72
2023/05/25 05:34:55;;;;;;;3.10;1.23;;;;;;;12.05;92.37;96598.34;5081328;28;20215;-72
2023/05/25 05:37:22;;;;;;;1.67;1.57;;;;;;;12.21;93.93;96590.31;5081034;28;20219;-70
2023/05/25 05:39:51;;;;;;;1.77;1.20;;;;;;;12.30;92.63;96591.88;5081573;28;20645;-68
2023/05/25 05:42:17;;;;;;;1.43;1.33;;;;;;;12.22;92.84;96605.97;5081411;28;20215;-69
2023/05/25 05:44:44;;;;;;;1.33;1.23;;;;;;;12.34;91.24;96599.25;5081509;28;20206;-70
2023/05/25 05:47:10;;;;;;;2.53;1.37;;;;;;;12.14;90.97;96604.41;5080795;28;20199;-70
2023/05/25 05:49:38;;;;;;;2.30;1.43;;;;;;;12.27;90.99;96611.56;5080666;28;20195;-70
2023/05/25 05:52:05;;;;;;;4.80;2.23;;;;;;;12.04;91.76;96607.31;5081056;28;20208;-71
2023/05/25 05:54:32;;;;;;;4.73;1.10;;;;;;;12.15;92.13;96611.34;5080610;28;20208;-72
2023/05/25 05:56:58;;;;;;;4.40;1.87;;;;;;;12.19;92.23;96605.50;5079730;28;20228;-72
2023/05/25 05:59:25;;;;;;;2.87;1.67;;;;;;;12.37;92.12;96614.78;5079859;28;20200;-72
2023/05/25 06:01:51;;;;;;;5.13;2.40;;;;;;;12.38;92.09;96610.31;5081214;28;20246;-71
2023/05/25 06:04:18;;;;;;;1.80;1.33;;;;;;;12.71;93.34;96612.44;5080937;28;20204;-70
2023/05/25 06:06:46;;;;;;;3.90;1.57;;;;;;;12.89;93.89;96611.16;5081585;28;20188;-73
2023/05/25 06:09:13;;;;;;;2.65;2.05;;;;;;;12.87;91.66;96618.44;5077638;28;20234;-73
2023/05/25 06:11:40;;;;;;;6.10;3.13;;;;;;;13.04;91.13;96624.38;5078365;28;20202;-70
2023/05/25 06:14:06;;;;;;;1.63;1.30;;;;;;;13.01;90.65;96617.63;5078172;28;20204;-71
2023/05/25 06:16:33;;;;;;;3.67;1.90;;;;;;;13.40;92.59;96624.25;5078324;28;20234;-71
2023/05/25 06:19:00;;;;;;;1.42;1.20;;;;;;;13.52;90.79;96617.47;5077505;28;20231;-74
2023/05/25 06:21:26;;;;;;;7.53;2.08;;;;;;;13.55;91.09;96613.63;5078464;28;20635;-71
2023/05/25 06:23:56;;;;;;;1.45;1.35;;;;;;;13.59;90.08;96609.59;5077748;28;20208;-71
2023/05/25 06:26:22;;;;;;;3.83;1.45;;;;;;;13.31;90.54;96621.88;5077808;28;20207;-70
2023/05/25 06:28:49;;;;;;;1.27;0.90;;;;;;;13.42;90.10;96614.28;5077711;28;20215;-67
2023/05/25 06:31:15;;;;;;;2.70;1.88;;;;;;;13.60;91.46;96621.84;5077206;28;20207;-67
2023/05/25 06:33:42;;;;;;;1.67;1.08;;;;;;;13.65;90.30;96622.91;5077998;28;20211;-68
2023/05/25 06:36:09;;;;;;;8.45;1.85;;;;;;;13.68;90.63;96619.91;5076936;28;20246;-70
2023/05/25 06:38:36;;;;;;;4.97;2.20;;;;;;;13.64;90.65;96629.22;5077073;28;20216;-69
2023/05/25 06:41:04;;;;;;;3.47;1.20;;;;;;;13.88;91.10;96625.41;5077557;28;20211;-68
2023/05/25 06:43:31;;;;;;;9.15;2.13;;;;;;;13.86;88.56;96630.91;5078040;28;20207;-70
2023/05/25 06:45:57;;;;;;;3.20;1.95;;;;;;;13.79;90.50;96627.34;5077836;28;20668;-68
2023/05/25 06:48:24;;;;;;;2.60;1.65;;;;;;;13.86;90.91;96625.63;5076624;28;20224;-68
2023/05/25 06:50:50;;;;;;;1.38;1.23;;;;;;;13.80;89.88;96631.66;5077563;28;20218;-67
2023/05/25 06:53:17;;;;;;;4.22;1.70;;;;;;;13.92;89.76;96635.44;5077436;28;20208;-68
2023/05/25 06:55:44;;;;;;;5.25;2.33;;;;;;;14.09;91.22;96636.88;5077530;28;20356;-68
2023/05/25 06:58:12;;;;;;;2.58;1.27;;;;;;;14.21;89.13;96638.03;5076764;28;20243;-70
2023/05/25 07:00:38;;;;;;;4.32;2.25;;;;;;;14.21;89.89;96640.69;5077658;28;20253;-69
2023/05/25 07:03:05;;;;;;;5.53;2.38;;;;;;;14.07;89.05;96644.16;5077032;28;20223;-69
2023/05/25 07:05:31;;;;;;;2.60;1.55;;;;;;;14.08;88.92;96651.16;5077650;28;20203;-68
2023/05/25 07:07:58;;;;;;;3.30;1.73;;;;;;;14.11;90.40;96645.47;5076349;28;20313;-68
2023/05/25 07:10:24;;;;;;;3.15;1.65;;;;;;;14.08;89.71;96643.19;5077321;28;20199;-70
2023/05/25 07:12:51;;;;;;;3.05;2.25;;;;;;;14.31;89.19;96643.84;5077138;28;20196;-68
2023/05/25 07:15:20;;;;;;;2.05;1.73;;;;;;;14.30;88.72;96644.84;5077023;28;20572;-68
2023/05/25 07:17:47;;;;;;;3.92;1.73;;;;;;;14.16;89.56;96645.72;5076411;28;21278;-69
2023/05/25 07:20:13;;;;;;;2.95;1.75;;;;;;;14.28;87.36;96647.69;5077051;28;20203;-67
2023/05/25 07:22:41;;;;;;;6.35;2.45;;;;;;;14.40;87.64;96642.69;5076589;28;20207;-69
2023/05/25 07:25:08;;;;;;;3.25;1.55;;;;;;;14.50;89.89;96635.22;5076851;28;20200;-68
2023/05/25 07:27:35;;;;;;;15.88;2.28;;;;;;;14.41;88.25;96639.00;5076473;28;20681;-69
2023/05/25 07:30:01;;;;;;;2.42;1.67;;;;;;;14.41;88.14;96644.31;5077049;28;20203;-69
2023/05/25 07:32:29;;;;;;;2.08;1.85;;;;;;;14.64;87.85;96648.41;5076961;28;21129;-69
2023/05/25 07:34:55;;;;;;;3.42;2.75;;;;;;;14.53;87.85;96648.13;5075679;28;20203;-68
2023/05/25 07:37:22;;;;;;;2.30;0.98;;;;;;;14.81;90.35;96663.84;5076019;28;20227;-67
2023/05/25 07:39:49;;;;;;;4.88;2.08;;;;;;;14.71;87.16;96659.88;5077088;28;20202;-69
2023/05/25 07:42:19;;;;;;;6.88;1.67;;;;;;;14.86;87.26;96650.81;5076492;28;20714;-69
2023/05/25 07:44:49;;;;;;;3.38;1.30;;;;;;;14.99;89.45;96656.22;5077334;28;20257;-68
2023/05/25 07:47:16;;;;;;;2.15;1.25;;;;;;;14.86;86.75;96660.63;5075784;28;20196;-65
2023/05/25 07:49:43;;;;;;;4.18;2.03;;;;;;;15.02;87.04;96671.78;5076317;28;20261;-65
2023/05/25 07:52:10;;;;;;;2.28;1.42;;;;;;;14.76;85.94;96666.25;5076832;28;20211;-68
2023/05/25 07:54:38;;;;;;;1.90;1.65;;;;;;;14.86;88.56;96673.88;5076396;28;20750;-68
2023/05/25 07:57:06;;;;;;;3.92;1.45;;;;;;;15.05;90.76;96673.22;5076483;28;20227;-68
2023/05/25 07:59:33;;;;;;;2.05;1.45;;;;;;;15.27;88.09;96676.47;5075583;28;20691;-66
2023/05/25 08:01:59;;;;;;;1.65;1.35;;;;;;;15.40;86.84;96681.00;5076670;28;20208;-69
2023/05/25 08:04:26;;;;;;;1.27;1.17;;;;;;;15.23;86.11;96684.19;5076506;28;20196;-69
2023/05/25 08:06:53;;;;;;;3.47;1.30;;;;;;;15.53;87.13;96689.06;5076548;28;20206;-66
2023/05/25 08:09:20;;;;;;;1.73;1.02;;;;;;;15.47;82.72;96687.19;5075801;28;20216;-69
2023/05/25 08:11:46;;;;;;;2.08;1.40;;;;;;;15.25;84.86;96693.63;5076569;28;20683;-68
2023/05/25 08:14:13;;;;;;;3.50;1.95;;;;;;;15.19;83.84;96685.56;5076102;28;20793;-66
2023/05/25 08:16:39;;;;;;;1.70;1.60;;;;;;;15.30;85.35;96686.69;5076862;28;20234;-70
2023/05/25 08:19:06;;;;;;;2.45;1.77;;;;;;;15.23;84.11;96687.66;5075349;28;20235;-68
2023/05/25 08:21:33;;;;;;;4.82;2.05;;;;;;;15.47;86.48;96692.50;5076111;28;20226;-66
2023/05/25 08:24:02;;;;;;;2.08;1.35;;;;;;;15.65;85.25;96695.47;5076039;28;20200;-69
2023/05/25 08:26:29;;;;;;;5.32;1.58;;;;;;;15.27;84.47;96700.38;5076315;28;20200;-66
2023/05/25 08:28:56;;;;;;;7.78;1.85;;;;;;;15.50;87.48;96692.94;5075865;28;20227;-69
2023/05/25 08:31:22;;;;;;;3.13;1.63;;;;;;;15.66;84.68;96703.25;5075811;28;20226;-67
2023/05/25 08:33:49;;;;;;;1.55;1.45;;;;;;;15.41;85.20;96694.13;5076937;28;20208;-67
2023/05/25 08:36:15;;;;;;;2.90;2.00;;;;;;;15.59;83.64;96696.25;5079616;28;20729;-69
2023/05/25 08:38:42;;;;;;;5.53;2.13;;;;;;;15.47;82.51;96697.81;5079423;28;20639;-69
2023/05/25 08:41:11;;;;;;;3.75;2.08;;;;;;;15.78;84.04;96700.84;5080106;28;20204;-70
2023/05/25 08:43:38;;;;;;;2.53;1.55;;;;;;;15.62;84.57;96702.00;5080172;28;20204;-70
2023/05/25 08:46:06;;;;;;;3.78;2.35;;;;;;;15.74;83.75;96708.38;5080003;28;20200;-70
2023/05/25 08:48:34;;;;;;;4.78;1.70;;;;;;;16.02;82.52;96699.28;5079424;28;20216;-69
2023/05/25 08:51:04;;;;;;;3.08;1.75;;;;;;;16.08;84.27;96703.81;5079926;28;20206;-70
2023/05/25 08:53:35;;;;;;;3.78;2.17;;;;;;;16.32;87.38;96705.16;5079811;28;20578;-69
2023/05/25 08:56:03;;;;;;;2.05;1.50;;;;;;;16.35;80.78;96689.63;5079453;28;20200;-72
2023/05/25 08:58:39;;;;;;;4.32;1.83;;;;;;;16.68;81.91;96691.31;5078253;28;20216;-69
2023/05/25 09:01:08;;;;;;;7.03;2.13;;;;;;;16.33;83.58;96696.16;5079400;28;20211;-70
2023/05/25 09:03:35;;;;;;;2.72;1.65;;;;;;;16.41;82.34;96699.47;5079115;28;20208;-71
2023/05/25 09:06:02;;;;;;;4.63;2.33;;;;;;;16.36;82.13;96699.25;5079967;28;20204;-71
2023/05/25 09:08:30;;;;;;;5.68;2.20;;;;;;;16.46;82.32;96689.03;5078872;28;20212;-70
2023/05/25 09:10:57;;;;;;;4.53;2.25;;;;;;;16.47;84.22;96697.81;5079018;28;20204;-69
2023/05/25 09:13:24;;;;;;;2.85;1.35;;;;;;;16.37;83.07;96706.22;5079633;28;20204;-70
2023/05/25 09:15:51;;;;;;;2.80;1.48;;;;;;;16.57;82.11;96707.06;5079625;28;20200;-69
2023/05/25 09:18:18;;;;;;;2.78;1.52;;;;;;;16.57;82.98;96691.91;5078649;28;20228;-70
2023/05/25 09:20:45;;;;;;;3.72;2.25;;;;;;;16.81;82.81;96698.50;5079115;28;20204;-71
2023/05/25 09:23:11;;;;;;;4.55;2.40;;;;;;;16.89;81.97;96698.28;5078876;28;20253;-70
2023/05/25 09:25:38;;;;;;;3.28;1.83;;;;;;;16.88;80.99;96701.97;5078895;28;20247;-69
2023/05/25 09:28:08;;;;;;;4.38;1.98;;;;;;;16.97;82.22;96706.06;5078579;28;20735;-71
2023/05/25 09:30:35;;;;;;;7.35;2.03;;;;;;;16.76;83.05;96708.91;5077620;28;20208;-68
2023/05/25 09:33:13;;;;;;;3.85;2.65;;;;;;;16.81;82.23;96714.47;5078739;28;20231;-71
2023/05/25 09:35:40;;;;;;;4.93;3.80;;;;;;;16.78;82.74;96721.00;5078502;28;20204;-69
2023/05/25 09:38:07;;;;;;;3.55;2.10;;;;;;;16.87;83.50;96721.63;5077386;28;21048;-69
2023/05/25 09:40:34;;;;;;;7.05;2.45;;;;;;;16.77;82.27;96716.69;5078926;28;20218;-69
2023/05/25 09:43:02;;;;;;;2.35;1.67;;;;;;;16.71;81.05;96738.81;5079173;28;20787;-69
2023/05/25 09:45:29;;;;;;;3.45;1.83;;;;;;;16.69;81.70;96740.03;5078338;28;20628;-70
2023/05/25 09:47:56;;;;;;;4.28;2.15;;;;;;;16.63;81.20;96732.84;5077919;28;20215;-69
2023/05/25 09:50:24;;;;;;;3.42;1.45;;;;;;;17.15;83.73;96731.06;5078642;28;20196;-68
2023/05/25 09:52:52;;;;;;;4.30;2.10;;;;;;;17.06;82.00;96734.97;5078779;28;20207;-69
2023/05/25 09:55:18;;;;;;;3.42;1.73;;;;;;;17.01;80.88;96731.28;5078578;28;20204;-69
2023/05/25 09:57:45;;;;;;;3.20;1.70;;;;;;;16.93;79.84;96736.78;5077148;28;20235;-72
2023/05/25 10:00:13;;;;;;;2.95;1.73;;;;;;;16.94;81.61;96727.78;5077952;28;20857;-69
2023/05/25 10:02:41;;;;;;;4.72;1.88;;;;;;;17.17;81.06;96724.50;5078227;28;20196;-72
2023/05/25 10:05:08;;;;;;;2.47;1.83;;;;;;;17.51;79.62;96726.13;5078355;28;20727;-72
2023/05/25 10:07:39;;;;;;;1.40;1.30;;;;;;;17.83;79.90;96731.38;5078162;28;20220;-69
